2C8

Cavalier Municipal Airport

Cavalier, North Dakota, USA
METAR K2C8 172355Z AUTO 22007KT 10SM CLR M11/M15 A3031 RMK AO2
Observed Flight Rules
Nov-17 @ 23:55 UTC (20 minutes ago) Visual Flight Rules
Wind Visibility Clouds
220° at 7 knots 10 miles
  • Clear skies
Temperatures Readings
Current -11°C / 12°F
Dewpoint -15°C / 5°F
Humidity 73%
Altimeter 30.31" Hg
Pressure 1026 hPa
Elevation 272
METAR K2C8 172355Z AUTO 22007KT 10SM CLR M11/M15 A3031 RMK AO2
Observed Flight Rules
Nov-17 @ 23:55 UTC
(20 minutes ago)
VFR
Wind Visibility
220° at 7 knots 10 miles
Clouds
  • Clear skies
Temperature Dewpoint
-11°C / 12°F -15°C / 5°F
Humidity Altimeter Pressure
73% 30.31" Hg 1026 hPa